Time;durP1;ratioP1;P1;durP2;ratioP2;P2;SDS_P1;SDS_P2;PMS_P1;PMS_P2;Temp;Humidity;BMP_temperature;BMP_pressure;BME280_temperature;BME280_humidity;BME280_pressure;Samples;Min_cycle;Max_cycle;Signal;HPM_P1;HPM_P2
2023/06/16 00:01:14;;;;;;;7.30;3.90;;;16.40;99.10;;;;;;5155040;27;20046;-48
2023/06/16 00:03:41;;;;;;;7.22;4.18;;;16.40;99.30;;;;;;5154985;27;20043;-46
2023/06/16 00:06:14;;;;;;;6.78;4.07;;;16.30;99.40;;;;;;5154942;27;20054;-48
2023/06/16 00:08:48;;;;;;;8.00;3.72;;;16.40;99.60;;;;;;5137153;27;20397;-46
2023/06/16 00:11:17;;;;;;;6.53;3.75;;;16.40;99.80;;;;;;5137004;27;20047;-47
2023/06/16 00:13:45;;;;;;;7.50;4.05;;;16.30;99.90;;;;;;5155158;27;20043;-46
2023/06/16 00:16:12;;;;;;;6.28;3.60;;;16.30;99.90;;;;;;5154862;27;20589;-46
2023/06/16 00:18:43;;;;;;;7.03;4.30;;;16.20;99.90;;;;;;5154770;27;20134;-47
2023/06/16 00:21:10;;;;;;;8.63;4.22;;;16.20;99.90;;;;;;5155139;27;20046;-46
2023/06/16 00:23:36;;;;;;;7.43;4.30;;;16.20;99.90;;;;;;5136694;27;20047;-46
2023/06/16 00:26:02;;;;;;;8.63;4.05;;;16.20;99.90;;;;;;5155008;27;20061;-46
2023/06/16 00:28:28;;;;;;;7.57;4.53;;;16.30;99.90;;;;;;5154799;27;20485;-46
2023/06/16 00:30:53;;;;;;;7.38;4.05;;;16.30;99.90;;;;;;5154870;27;20079;-47
2023/06/16 00:33:19;;;;;;;6.78;4.43;;;16.30;99.90;;;;;;5136649;27;20154;-47
2023/06/16 00:35:45;;;;;;;6.25;4.00;;;16.20;99.90;;;;;;5154833;27;20047;-46
2023/06/16 00:38:11;;;;;;;8.07;4.68;;;16.30;99.90;;;;;;5154639;27;20039;-46
2023/06/16 00:40:37;;;;;;;8.85;5.05;;;16.20;99.90;;;;;;5154861;27;20130;-46
2023/06/16 00:43:03;;;;;;;;;;;16.20;99.90;;;;;;5155264;27;20113;-46
2023/06/16 00:45:29;;;;;;;7.00;4.25;;;16.30;99.90;;;;;;5154757;27;19919;-47
2023/06/16 00:47:56;;;;;;;8.25;4.72;;;16.20;99.90;;;;;;5139435;27;20101;-46
2023/06/16 00:50:23;;;;;;;7.68;4.78;;;16.30;99.90;;;;;;5139905;27;20051;-47
2023/06/16 00:52:50;;;;;;;7.10;4.30;;;16.30;99.90;;;;;;5158393;27;20086;-46
2023/06/16 00:55:19;;;;;;;8.65;4.38;;;16.30;99.90;;;;;;5158385;27;20050;-46
2023/06/16 00:57:45;;;;;;;6.85;4.32;;;16.20;99.90;;;;;;5158145;27;20042;-46
2023/06/16 01:00:11;;;;;;;7.20;4.13;;;16.20;99.90;;;;;;5139951;27;20057;-46
2023/06/16 01:02:38;;;;;;;;;;;16.10;99.90;;;;;;5140415;27;20393;-46
2023/06/16 01:05:07;;;;;;;7.53;4.40;;;16.10;99.90;;;;;;5139951;27;19926;-46
2023/06/16 01:08:02;;;;;;;7.20;4.45;;;16.10;99.90;;;;;;5139725;27;20057;-48
2023/06/16 01:10:39;;;;;;;7.05;4.30;;;16.10;99.90;;;;;;5083674;27;20063;-46
2023/06/16 01:13:21;;;;;;;7.43;4.68;;;16.20;99.90;;;;;;5140525;27;20051;-46
2023/06/16 01:15:47;;;;;;;7.93;4.38;;;16.20;99.90;;;;;;5158042;27;20482;-46
2023/06/16 01:18:22;;;;;;;7.68;4.43;;;16.20;99.90;;;;;;5157873;27;20512;-49
2023/06/16 01:21:05;;;;;;;6.80;4.45;;;16.20;99.90;;;;;;5157966;27;20055;-46
2023/06/16 01:23:56;;;;;;;7.50;4.65;;;16.20;99.90;;;;;;5139860;27;20053;-47
2023/06/16 01:26:26;;;;;;;7.70;4.78;;;16.20;99.90;;;;;;5158238;27;20054;-46
2023/06/16 01:28:52;;;;;;;8.10;4.97;;;16.20;99.90;;;;;;5157838;27;20046;-48
2023/06/16 01:31:21;;;;;;;7.75;4.85;;;16.20;99.90;;;;;;5157494;27;20122;-46
2023/06/16 01:33:47;;;;;;;7.97;4.68;;;16.10;99.90;;;;;;5157660;27;20035;-46
2023/06/16 01:36:15;;;;;;;7.95;4.80;;;16.10;99.90;;;;;;5157638;27;20049;-46
2023/06/16 01:38:42;;;;;;;8.52;4.78;;;16.10;99.90;;;;;;5157444;27;20058;-47
2023/06/16 01:41:08;;;;;;;8.75;4.90;;;16.10;99.90;;;;;;5157425;27;20512;-47
2023/06/16 01:43:35;;;;;;;7.72;4.90;;;16.10;99.90;;;;;;5157655;27;20394;-46
2023/06/16 01:46:01;;;;;;;7.68;4.57;;;16.00;99.90;;;;;;5157321;27;20046;-48
2023/06/16 01:48:27;;;;;;;8.02;4.70;;;16.00;99.90;;;;;;5157400;27;20042;-46
2023/06/16 01:50:53;;;;;;;8.63;4.80;;;16.00;99.90;;;;;;5157303;27;20155;-47
2023/06/16 01:53:19;;;;;;;7.53;4.70;;;16.00;99.90;;;;;;5139060;27;20078;-47
2023/06/16 01:55:49;;;;;;;9.55;4.57;;;16.00;99.90;;;;;;5157459;27;20496;-47
2023/06/16 01:58:17;;;;;;;8.60;4.78;;;16.00;99.90;;;;;;5156744;27;20394;-46
2023/06/16 02:00:54;;;;;;;10.18;5.20;;;15.90;99.90;;;;;;5138708;27;20374;-46
2023/06/16 02:03:31;;;;;;;8.45;4.90;;;15.90;99.90;;;;;;5138668;27;20482;-46
2023/06/16 02:06:02;;;;;;;7.10;4.28;;;15.90;99.90;;;;;;5139007;27;20050;-46
2023/06/16 02:08:31;;;;;;;7.78;4.72;;;15.80;99.90;;;;;;5138373;27;20047;-46
2023/06/16 02:10:57;;;;;;;8.15;4.70;;;15.80;99.90;;;;;;5156920;27;20115;-46
2023/06/16 02:13:23;;;;;;;8.02;4.55;;;15.80;99.90;;;;;;5156632;27;20133;-46
2023/06/16 02:15:49;;;;;;;7.32;4.40;;;15.80;99.90;;;;;;5157412;27;20043;-46
2023/06/16 02:18:15;;;;;;;8.07;4.95;;;15.70;99.90;;;;;;5157092;27;20500;-45
2023/06/16 02:20:40;;;;;;;7.22;4.32;;;15.70;99.90;;;;;;5156643;27;20524;-46
2023/06/16 02:23:06;;;;;;;8.65;3.92;;;15.70;99.90;;;;;;5156760;27;20123;-45
2023/06/16 02:25:32;;;;;;;7.00;4.18;;;15.60;99.90;;;;;;5156482;27;20106;-47
2023/06/16 02:27:57;;;;;;;8.13;4.85;;;15.60;99.90;;;;;;5156370;27;20039;-45
2023/06/16 02:30:23;;;;;;;7.93;4.65;;;15.50;99.90;;;;;;5156740;27;20050;-46
2023/06/16 02:32:49;;;;;;;9.52;5.47;;;15.50;99.90;;;;;;5156643;27;20564;-45
2023/06/16 02:35:15;;;;;;;10.02;5.32;;;15.50;99.90;;;;;;5156559;27;20146;-45
2023/06/16 02:37:41;;;;;;;7.65;4.63;;;15.40;99.90;;;;;;5156211;27;20530;-45
2023/06/16 02:40:08;;;;;;;7.75;5.22;;;15.40;99.90;;;;;;5155967;27;20055;-45
2023/06/16 02:42:33;;;;;;;;;;;15.30;99.90;;;;;;5156562;27;20051;-45
2023/06/16 02:44:59;;;;;;;8.18;5.20;;;15.30;99.90;;;;;;5156199;27;19949;-46
2023/06/16 02:47:26;;;;;;;8.95;5.55;;;15.20;99.90;;;;;;5156361;27;20050;-46
2023/06/16 02:49:54;;;;;;;9.15;5.22;;;15.20;99.90;;;;;;5156412;27;20410;-45
2023/06/16 02:52:20;;;;;;;9.32;5.80;;;15.20;99.90;;;;;;5137778;27;20053;-46
2023/06/16 02:54:46;;;;;;;8.95;5.57;;;15.20;99.90;;;;;;5155733;27;20042;-46
2023/06/16 02:57:12;;;;;;;9.43;5.90;;;15.20;99.90;;;;;;5155759;27;20481;-46
2023/06/16 02:59:37;;;;;;;10.43;5.97;;;15.10;99.90;;;;;;5138034;27;20047;-45
2023/06/16 03:02:03;;;;;;;8.80;5.83;;;15.10;99.90;;;;;;5155987;27;20053;-45
2023/06/16 03:04:29;;;;;;;9.68;6.03;;;15.10;99.90;;;;;;5137294;27;20276;-45
2023/06/16 03:06:57;;;;;;;10.93;5.97;;;15.10;99.90;;;;;;5155736;27;20080;-46
2023/06/16 03:09:26;;;;;;;9.13;5.47;;;15.10;99.90;;;;;;5155060;27;20057;-45
2023/06/16 03:11:53;;;;;;;11.25;6.38;;;15.10;99.90;;;;;;5156208;27;20046;-45
2023/06/16 03:14:20;;;;;;;10.13;5.72;;;15.10;99.90;;;;;;5155792;27;20050;-46
2023/06/16 03:16:50;;;;;;;8.68;5.85;;;15.10;99.90;;;;;;5155632;27;20038;-46
2023/06/16 03:19:16;;;;;;;9.52;6.15;;;15.00;99.90;;;;;;5155672;27;20053;-45
2023/06/16 03:21:42;;;;;;;11.75;6.47;;;15.10;99.90;;;;;;5155406;27;20481;-45
2023/06/16 03:24:08;;;;;;;;;;;15.00;99.90;;;;;;5137843;27;20038;-45
2023/06/16 03:26:35;;;;;;;9.57;6.20;;;15.10;99.90;;;;;;5155611;27;20430;-46
2023/06/16 03:29:01;;;;;;;11.15;7.22;;;15.10;99.90;;;;;;5137150;27;20035;-46
2023/06/16 03:31:27;;;;;;;9.88;6.28;;;15.10;99.90;;;;;;5155480;27;20087;-45
2023/06/16 03:33:52;;;;;;;10.52;6.63;;;15.00;99.90;;;;;;5155306;27;20042;-46
2023/06/16 03:36:18;;;;;;;9.20;6.47;;;15.00;99.90;;;;;;5119992;27;20199;-45
2023/06/16 03:38:44;;;;;;;12.47;7.20;;;15.00;99.90;;;;;;5136424;27;20055;-45
2023/06/16 03:41:10;;;;;;;10.18;6.82;;;15.00;99.90;;;;;;5155358;27;20291;-46
2023/06/16 03:43:36;;;;;;;10.90;6.90;;;15.00;99.90;;;;;;5155753;27;20042;-46
2023/06/16 03:46:02;;;;;;;10.67;6.97;;;15.10;99.90;;;;;;5120025;27;20046;-46
2023/06/16 03:48:27;;;;;;;10.95;7.25;;;15.10;99.90;;;;;;5155276;27;20340;-46
2023/06/16 03:50:53;;;;;;;14.33;7.80;;;15.10;99.90;;;;;;5155239;27;20050;-45
2023/06/16 03:53:20;;;;;;;10.77;7.00;;;15.10;99.90;;;;;;5155203;27;20473;-46
2023/06/16 03:55:47;;;;;;;10.88;7.18;;;15.10;99.90;;;;;;5155672;27;20054;-45
2023/06/16 03:58:15;;;;;;;12.05;7.63;;;15.10;99.90;;;;;;5155139;27;20047;-45
2023/06/16 04:00:43;;;;;;;11.40;7.10;;;15.20;99.90;;;;;;5155427;27;20099;-45
2023/06/16 04:03:09;;;;;;;12.85;7.30;;;15.20;99.90;;;;;;5136810;27;20051;-45
2023/06/16 04:05:35;;;;;;;10.75;7.13;;;15.20;99.90;;;;;;5155255;27;20481;-45
2023/06/16 04:08:01;;;;;;;10.65;7.05;;;15.20;99.90;;;;;;5155327;27;20519;-45
2023/06/16 04:10:27;;;;;;;12.80;7.40;;;15.20;99.90;;;;;;5155181;27;20129;-45
2023/06/16 04:12:53;;;;;;;11.90;7.32;;;15.20;99.90;;;;;;5154989;27;20050;-45
2023/06/16 04:15:19;;;;;;;12.88;7.60;;;15.10;99.90;;;;;;5136679;27;20049;-46
2023/06/16 04:17:45;;;;;;;12.63;7.80;;;15.20;99.90;;;;;;5155097;27;20375;-45
2023/06/16 04:20:12;;;;;;;13.82;8.43;;;15.20;99.90;;;;;;5155054;27;20092;-45
2023/06/16 04:22:39;;;;;;;12.35;7.88;;;15.20;99.90;;;;;;5158045;27;20046;-45
2023/06/16 04:25:06;;;;;;;14.48;8.52;;;15.20;99.90;;;;;;5159007;27;20079;-45
2023/06/16 04:27:33;;;;;;;13.27;8.30;;;15.20;99.90;;;;;;5159032;27;20082;-45
2023/06/16 04:30:05;;;;;;;12.00;7.90;;;15.20;99.90;;;;;;5158944;27;20051;-45
2023/06/16 04:32:34;;;;;;;11.95;7.80;;;15.20;99.90;;;;;;5158992;27;20119;-45
2023/06/16 04:35:03;;;;;;;11.63;7.78;;;15.20;99.90;;;;;;5158596;27;20045;-45
2023/06/16 04:37:29;;;;;;;11.73;7.53;;;15.20;99.90;;;;;;5158592;27;20462;-45
2023/06/16 04:39:55;;;;;;;12.48;8.23;;;15.20;99.90;;;;;;5158372;27;20520;-45
2023/06/16 04:42:21;;;;;;;13.18;8.55;;;15.20;99.90;;;;;;5140436;27;20047;-45
2023/06/16 04:44:46;;;;;;;12.68;7.65;;;15.30;99.90;;;;;;5158479;27;20046;-45
2023/06/16 04:47:12;;;;;;;12.63;7.67;;;15.30;99.90;;;;;;5158545;27;20067;-45
2023/06/16 04:49:38;;;;;;;13.35;7.68;;;15.30;99.90;;;;;;5158408;27;20322;-45
2023/06/16 04:52:06;;;;;;;12.13;7.97;;;15.40;99.90;;;;;;5158277;27;20424;-46
2023/06/16 04:54:32;;;;;;;11.82;7.70;;;15.40;99.90;;;;;;5158603;27;20058;-47
2023/06/16 04:56:58;;;;;;;13.02;8.35;;;15.40;99.90;;;;;;5158391;27;20503;-46
2023/06/16 04:59:25;;;;;;;11.90;8.40;;;15.40;99.90;;;;;;5158230;27;20125;-45
2023/06/16 05:01:51;;;;;;;14.13;8.95;;;15.40;99.90;;;;;;5140214;27;20474;-45
2023/06/16 05:04:17;;;;;;;14.15;8.18;;;15.50;99.90;;;;;;5139549;27;20046;-48
2023/06/16 05:06:43;;;;;;;16.13;9.23;;;15.50;99.90;;;;;;5140183;27;20053;-46
2023/06/16 05:09:09;;;;;;;12.65;8.48;;;15.70;99.90;;;;;;5158206;27;20047;-46
2023/06/16 05:11:34;;;;;;;15.10;10.38;;;15.70;99.90;;;;;;5158143;27;20049;-45
2023/06/16 05:14:00;;;;;;;17.15;9.48;;;15.90;99.90;;;;;;5139777;27;20043;-46
2023/06/16 05:16:26;;;;;;;15.50;9.70;;;16.20;99.90;;;;;;5157892;27;20050;-50
2023/06/16 05:18:52;;;;;;;15.23;9.80;;;16.60;99.90;;;;;;5157842;27;20442;-49
2023/06/16 05:21:24;;;;;;;14.18;9.07;;;17.30;99.90;;;;;;5139448;27;20053;-48
2023/06/16 05:23:53;;;;;;;13.63;9.13;;;17.80;99.90;;;;;;5158241;27;20054;-47
2023/06/16 05:26:20;;;;;;;14.80;9.00;;;17.90;99.90;;;;;;5157768;27;20493;-46
2023/06/16 05:28:46;;;;;;;15.23;9.10;;;17.90;99.90;;;;;;5157585;27;20054;-46
2023/06/16 05:31:12;;;;;;;15.95;9.88;;;17.90;99.90;;;;;;5157557;27;20047;-47
2023/06/16 05:33:38;;;;;;;15.30;8.98;;;18.00;99.90;;;;;;5157647;27;20046;-46
2023/06/16 05:36:03;;;;;;;14.30;9.23;;;18.10;99.90;;;;;;5122282;27;20435;-46
2023/06/16 05:38:29;;;;;;;14.38;8.60;;;18.00;99.90;;;;;;5157290;27;20501;-50
2023/06/16 05:40:55;;;;;;;13.95;8.38;;;18.00;99.90;;;;;;5139203;27;20122;-48
2023/06/16 05:43:20;;;;;;;13.75;8.70;;;18.10;99.90;;;;;;5157506;27;20050;-47
2023/06/16 05:45:46;;;;;;;13.07;7.93;;;18.10;99.90;;;;;;5157279;27;20398;-47
2023/06/16 05:48:12;;;;;;;12.90;7.35;;;18.10;99.90;;;;;;5157073;27;20038;-47
2023/06/16 05:50:38;;;;;;;12.98;7.57;;;18.10;99.90;;;;;;5157347;27;20047;-47
2023/06/16 05:53:04;;;;;;;10.63;6.75;;;18.20;99.90;;;;;;5157314;27;20043;-47
2023/06/16 05:55:30;;;;;;;;;;;18.20;99.90;;;;;;5157622;27;20054;-47
2023/06/16 05:57:55;;;;;;;11.13;7.13;;;18.20;99.90;;;;;;5156834;27;19971;-46
2023/06/16 06:00:21;;;;;;;11.38;6.75;;;18.20;99.90;;;;;;5138670;27;20099;-46
2023/06/16 06:02:47;;;;;;;10.48;6.53;;;18.30;99.90;;;;;;5156801;27;20121;-46
2023/06/16 06:05:12;;;;;;;12.30;7.03;;;18.30;99.90;;;;;;5104722;27;20050;-48
2023/06/16 06:07:38;;;;;;;10.55;6.65;;;18.40;99.90;;;;;;5156912;27;20068;-47
2023/06/16 06:10:04;;;;;;;10.07;6.13;;;18.40;99.90;;;;;;5156816;27;20038;-47
2023/06/16 06:12:30;;;;;;;;;;;18.50;99.90;;;;;;5138964;27;20099;-47
2023/06/16 06:14:55;;;;;;;10.07;6.25;;;18.50;99.90;;;;;;5156727;27;19918;-47
2023/06/16 06:17:21;;;;;;;11.50;6.07;;;18.60;99.90;;;;;;5138265;27;20046;-47
2023/06/16 06:19:47;;;;;;;10.45;5.93;;;18.60;99.90;;;;;;5156729;27;20050;-48
2023/06/16 06:22:12;;;;;;;10.05;6.25;;;18.70;99.90;;;;;;5156451;27;20091;-47
2023/06/16 06:24:38;;;;;;;9.63;5.88;;;18.70;99.90;;;;;;5138035;27;20043;-47
2023/06/16 06:27:04;;;;;;;9.90;5.45;;;18.80;99.90;;;;;;5156579;27;20068;-47
2023/06/16 06:29:30;;;;;;;8.00;5.10;;;18.90;99.90;;;;;;5156465;27;20038;-47
2023/06/16 06:31:56;;;;;;;8.85;4.75;;;18.90;99.90;;;;;;5156121;27;20057;-47
2023/06/16 06:34:21;;;;;;;8.10;4.30;;;18.90;99.90;;;;;;5156543;27;20099;-47
2023/06/16 06:36:47;;;;;;;6.55;3.65;;;19.00;99.90;;;;;;5156470;27;20094;-47
2023/06/16 06:39:13;;;;;;;7.15;4.45;;;19.00;99.90;;;;;;5156553;27;20063;-47
2023/06/16 06:41:40;;;;;;;8.52;4.68;;;19.00;99.90;;;;;;5156139;27;20382;-47
2023/06/16 06:44:07;;;;;;;7.70;4.20;;;19.10;99.90;;;;;;5155293;27;20053;-49
2023/06/16 06:46:33;;;;;;;6.72;4.18;;;19.20;99.90;;;;;;5155863;27;20054;-48
2023/06/16 06:48:58;;;;;;;6.82;4.20;;;19.30;99.90;;;;;;5156078;27;20078;-47
2023/06/16 06:51:24;;;;;;;7.80;4.03;;;19.40;99.90;;;;;;5156070;27;20078;-47
2023/06/16 06:53:52;;;;;;;7.55;4.03;;;19.60;99.90;;;;;;5155963;27;20099;-47
2023/06/16 06:56:17;;;;;;;7.93;4.22;;;19.70;99.90;;;;;;5155975;27;20050;-48
2023/06/16 06:58:43;;;;;;;7.78;4.40;;;19.70;99.90;;;;;;5155911;27;20099;-47
2023/06/16 07:01:09;;;;;;;6.82;4.20;;;19.80;99.90;;;;;;5155701;27;20050;-46
2023/06/16 07:03:35;;;;;;;6.45;4.10;;;19.80;99.90;;;;;;5155959;27;20102;-47
2023/06/16 07:06:01;;;;;;;7.25;3.45;;;19.80;99.90;;;;;;5120983;27;20042;-46
2023/06/16 07:08:27;;;;;;;7.95;3.50;;;19.80;99.90;;;;;;5137437;27;20552;-47
2023/06/16 07:10:52;;;;;;;6.85;3.83;;;19.90;99.90;;;;;;5155694;27;20047;-48
2023/06/16 07:13:18;;;;;;;6.43;3.58;;;20.30;99.90;;;;;;5155625;27;20043;-47
2023/06/16 07:15:44;;;;;;;7.63;3.97;;;20.50;99.90;;;;;;5103181;27;20179;-47
2023/06/16 07:18:09;;;;;;;7.78;3.97;;;20.60;99.90;;;;;;5155978;27;20042;-47
2023/06/16 07:20:35;;;;;;;6.05;3.60;;;20.60;99.90;;;;;;5156025;27;20043;-47
2023/06/16 07:23:01;;;;;;;8.77;3.40;;;20.70;99.90;;;;;;5155704;27;20099;-47
2023/06/16 07:25:28;;;;;;;7.32;3.58;;;20.80;99.90;;;;;;5155375;27;20074;-47
2023/06/16 07:27:54;;;;;;;7.38;3.55;;;21.10;99.90;;;;;;5155472;27;20038;-47
2023/06/16 07:30:20;;;;;;;7.03;3.40;;;21.50;99.90;;;;;;5155410;27;20080;-48
2023/06/16 07:32:46;;;;;;;8.43;4.03;;;21.50;99.90;;;;;;5155938;27;20042;-48
2023/06/16 07:35:12;;;;;;;;;;;21.40;99.90;;;;;;5155616;27;20577;-48
2023/06/16 07:37:38;;;;;;;6.30;3.95;;;21.30;99.90;;;;;;5155268;27;20017;-46
2023/06/16 07:40:06;;;;;;;7.40;4.65;;;21.20;99.90;;;;;;5155271;27;20143;-47
2023/06/16 07:42:32;;;;;;;7.60;4.30;;;21.10;99.90;;;;;;5155184;27;20090;-47
2023/06/16 07:44:58;;;;;;;5.45;3.17;;;21.00;99.90;;;;;;5119715;27;20085;-46
2023/06/16 07:47:23;;;;;;;6.63;3.35;;;21.00;99.90;;;;;;5155498;27;20038;-48
2023/06/16 07:49:49;;;;;;;6.68;2.92;;;20.90;99.90;;;;;;5137092;27;20480;-47
2023/06/16 07:52:15;;;;;;;4.95;2.55;;;20.90;99.90;;;;;;5137007;27;20363;-47
2023/06/16 07:54:41;;;;;;;5.35;2.25;;;20.80;99.90;;;;;;5155414;27;20078;-47
2023/06/16 07:57:07;;;;;;;7.68;3.50;;;20.80;99.90;;;;;;5158928;27;20121;-47
2023/06/16 07:59:33;;;;;;;;;;;20.70;99.90;;;;;;5159692;27;20557;-47
2023/06/16 08:02:00;;;;;;;5.57;2.22;;;20.70;99.90;;;;;;5159461;27;19919;-47
2023/06/16 08:04:29;;;;;;;4.60;2.30;;;20.70;99.90;;;;;;5159426;27;20549;-51
2023/06/16 08:06:56;;;;;;;5.45;1.92;;;20.70;99.90;;;;;;5124448;27;20473;-49
2023/06/16 08:09:23;;;;;;;4.40;1.80;;;20.70;99.90;;;;;;5159144;27;20050;-48
2023/06/16 08:11:49;;;;;;;3.42;1.50;;;20.70;99.50;;;;;;5159227;27;20095;-48
2023/06/16 08:14:15;;;;;;;;;;;20.70;98.80;;;;;;5159342;27;20478;-47
2023/06/16 08:16:41;;;;;;;5.78;1.58;;;20.70;96.00;;;;;;5140775;27;19968;-47
2023/06/16 08:19:08;;;;;;;6.75;1.80;;;20.70;97.90;;;;;;5159068;27;20087;-47
2023/06/16 08:21:34;;;;;;;3.33;1.40;;;20.70;97.70;;;;;;5159085;27;20043;-46
2023/06/16 08:24:01;;;;;;;4.32;1.23;;;20.70;97.50;;;;;;5158911;27;20050;-47
2023/06/16 08:26:27;;;;;;;3.15;1.35;;;20.70;96.60;;;;;;5158745;27;20043;-47
2023/06/16 08:28:53;;;;;;;3.17;1.15;;;20.70;96.00;;;;;;5158879;27;20474;-46
2023/06/16 08:31:19;;;;;;;2.60;1.05;;;20.70;95.80;;;;;;5140488;27;20049;-48
2023/06/16 08:33:45;;;;;;;3.17;1.10;;;20.60;93.70;;;;;;5158686;27;20051;-46
2023/06/16 08:36:11;;;;;;;3.17;1.25;;;20.70;94.40;;;;;;5158715;27;20099;-46
2023/06/16 08:38:37;;;;;;;3.53;1.25;;;20.70;93.50;;;;;;5158584;27;20054;-48
2023/06/16 08:41:10;;;;;;;2.42;1.10;;;20.70;93.60;;;;;;5158646;27;20159;-47
2023/06/16 08:43:36;;;;;;;3.60;1.35;;;20.70;92.70;;;;;;5158534;27;20058;-48
2023/06/16 08:46:08;;;;;;;2.83;0.90;;;20.70;93.30;;;;;;5158547;27;20056;-50
2023/06/16 08:48:37;;;;;;;2.25;1.10;;;20.70;92.80;;;;;;5158450;27;20046;-48
2023/06/16 08:51:04;;;;;;;5.32;1.35;;;20.70;92.90;;;;;;5158569;27;20042;-47
2023/06/16 08:53:38;;;;;;;2.97;1.08;;;20.80;92.70;;;;;;5139818;27;20099;-48
2023/06/16 08:56:07;;;;;;;2.53;1.35;;;20.80;92.30;;;;;;5158480;27;20117;-49
2023/06/16 08:58:37;;;;;;;4.20;1.48;;;20.80;92.40;;;;;;5158222;27;20054;-47
2023/06/16 09:01:04;;;;;;;2.80;1.30;;;20.80;92.40;;;;;;5158367;27;20125;-48
2023/06/16 09:03:33;;;;;;;2.95;1.50;;;20.80;92.20;;;;;;5158054;27;20061;-47
2023/06/16 09:06:02;;;;;;;2.80;1.30;;;20.80;92.00;;;;;;5157971;27;20046;-47
2023/06/16 09:08:28;;;;;;;5.70;1.92;;;20.90;91.60;;;;;;5157157;27;20043;-49
2023/06/16 09:10:55;;;;;;;3.00;1.52;;;20.90;91.80;;;;;;5158069;27;20497;-47
2023/06/16 09:13:22;;;;;;;3.25;1.40;;;20.90;91.80;;;;;;5158092;27;20047;-47
2023/06/16 09:15:49;;;;;;;4.60;1.67;;;20.90;91.80;;;;;;5158065;27;20050;-47
2023/06/16 09:18:15;;;;;;;2.33;1.17;;;20.90;92.00;;;;;;5157896;27;20038;-46
2023/06/16 09:20:41;;;;;;;;;;;20.90;91.90;;;;;;5158134;27;20043;-47
2023/06/16 09:23:08;;;;;;;2.65;1.20;;;20.90;90.80;;;;;;5158158;27;19922;-47
2023/06/16 09:25:35;;;;;;;2.78;1.30;;;21.00;91.80;;;;;;5158129;27;20043;-46
2023/06/16 09:28:09;;;;;;;2.83;1.27;;;21.00;91.70;;;;;;5157801;27;20089;-46
2023/06/16 09:30:35;;;;;;;5.07;1.50;;;21.00;91.40;;;;;;5157779;27;20126;-46
2023/06/16 09:33:01;;;;;;;2.92;0.90;;;21.00;91.00;;;;;;5157527;27;20126;-47
2023/06/16 09:35:28;;;;;;;;;;;21.00;90.70;;;;;;5157996;27;20121;-48
2023/06/16 09:37:56;;;;;;;;;;;21.10;90.30;;;;;;5158035;27;20259;-51
2023/06/16 09:40:29;;;;;;;2.30;1.15;;;21.10;90.30;;;;;;5157786;27;19926;-48
2023/06/16 09:42:58;;;;;;;2.83;1.17;;;21.10;91.00;;;;;;5157409;27;20489;-44
2023/06/16 09:45:30;;;;;;;3.25;1.23;;;21.20;90.40;;;;;;5157278;27;20045;-45
2023/06/16 09:47:56;;;;;;;2.30;1.02;;;21.20;90.60;;;;;;5157359;27;20130;-46
2023/06/16 09:50:25;;;;;;;;;;;21.20;89.20;;;;;;5139509;27;20055;-46
2023/06/16 09:52:51;;;;;;;3.92;1.20;;;21.20;88.30;;;;;;5157519;27;19926;-45
2023/06/16 09:55:17;;;;;;;;;;;21.20;90.20;;;;;;5157671;27;20485;-46
2023/06/16 09:57:45;;;;;;;4.65;1.15;;;21.20;87.90;;;;;;5157217;27;19926;-45
2023/06/16 10:00:17;;;;;;;3.90;1.05;;;21.30;89.60;;;;;;5157032;27;20103;-45
2023/06/16 10:02:44;;;;;;;2.97;1.30;;;21.30;89.80;;;;;;5157021;27;20043;-45
2023/06/16 10:05:16;;;;;;;4.60;1.10;;;21.40;90.00;;;;;;5157072;27;20057;-46
2023/06/16 10:07:59;;;;;;;4.38;1.23;;;21.50;89.50;;;;;;5157300;27;20050;-46
2023/06/16 10:10:27;;;;;;;3.63;1.00;;;21.50;88.60;;;;;;5157140;27;20082;-46
2023/06/16 10:12:54;;;;;;;3.72;1.40;;;21.60;88.80;;;;;;5156855;27;20463;-46
2023/06/16 10:15:22;;;;;;;2.83;1.13;;;21.70;87.70;;;;;;5156891;27;20393;-45
2023/06/16 10:17:50;;;;;;;9.95;4.22;;;21.80;87.60;;;;;;5156663;27;20043;-47
2023/06/16 10:20:20;;;;;;;3.80;1.35;;;21.80;87.30;;;;;;5156894;27;20135;-47
2023/06/16 10:22:47;;;;;;;2.53;1.20;;;21.90;87.50;;;;;;5156815;27;20042;-47
2023/06/16 10:25:12;;;;;;;3.95;1.20;;;22.00;87.20;;;;;;5156390;27;20046;-46
2023/06/16 10:27:40;;;;;;;3.30;0.85;;;22.10;86.80;;;;;;5156327;27;20047;-47
2023/06/16 10:30:09;;;;;;;3.13;1.20;;;22.20;86.10;;;;;;5156542;27;20121;-46
2023/06/16 10:32:37;;;;;;;23.33;3.70;;;22.40;87.20;;;;;;5156851;27;20121;-47
2023/06/16 10:35:07;;;;;;;3.13;1.27;;;22.50;86.40;;;;;;5137894;27;20055;-46
2023/06/16 10:37:33;;;;;;;3.65;1.30;;;22.60;86.30;;;;;;5156313;27;20039;-47
2023/06/16 10:40:08;;;;;;;2.95;1.30;;;22.80;85.30;;;;;;5137501;27;20559;-47
2023/06/16 10:42:35;;;;;;;4.28;1.10;;;22.90;83.40;;;;;;5156365;27;20054;-47
2023/06/16 10:45:26;;;;;;;2.65;1.00;;;23.00;83.50;;;;;;5156328;27;20058;-47
2023/06/16 10:48:01;;;;;;;1.88;1.00;;;23.20;81.60;;;;;;5120464;27;20042;-47
2023/06/16 10:50:59;;;;;;;3.00;1.02;;;23.40;82.80;;;;;;5155971;27;20039;-47
2023/06/16 10:53:26;;;;;;;2.38;1.27;;;23.50;80.70;;;;;;5156108;27;20537;-46
2023/06/16 10:56:07;;;;;;;2.97;1.20;;;23.70;81.20;;;;;;5156109;27;20051;-47
2023/06/16 10:58:33;;;;;;;2.28;1.13;;;23.70;79.80;;;;;;5137413;27;20051;-47
2023/06/16 11:01:08;;;;;;;3.22;1.10;;;23.80;81.60;;;;;;5137289;27;20038;-47
2023/06/16 11:03:44;;;;;;;2.05;1.20;;;24.00;80.70;;;;;;5155930;27;20047;-47
2023/06/16 11:06:10;;;;;;;;;;;24.20;79.80;;;;;;5156353;27;20039;-47
2023/06/16 11:08:53;;;;;;;2.30;1.00;;;24.30;77.20;;;;;;5137356;27;20010;-48
2023/06/16 11:11:19;;;;;;;1.67;0.90;;;24.40;76.90;;;;;;5155588;27;20047;-46
2023/06/16 11:13:46;;;;;;;2.53;1.00;;;24.50;77.10;;;;;;5155813;27;20038;-47
2023/06/16 11:16:12;;;;;;;2.22;1.10;;;24.60;75.90;;;;;;5137561;27;20035;-48
2023/06/16 11:18:37;;;;;;;;;;;24.70;75.20;;;;;;5156033;27;20181;-48
2023/06/16 11:21:06;;;;;;;3.10;0.93;;;24.70;70.30;;;;;;5155523;27;19919;-48
2023/06/16 11:23:32;;;;;;;2.30;1.08;;;24.80;74.60;;;;;;5155466;27;20047;-47
2023/06/16 11:26:03;;;;;;;2.47;0.98;;;24.80;73.60;;;;;;5155338;27;20409;-47
2023/06/16 11:28:29;;;;;;;2.80;1.00;;;24.90;72.50;;;;;;5155967;27;20075;-49
2023/06/16 11:30:55;;;;;;;;;;;25.00;71.70;;;;;;5137170;27;20096;-48
2023/06/16 11:33:22;;;;;;;3.10;1.45;;;25.20;68.60;;;;;;5137222;27;19987;-51
2023/06/16 11:35:48;;;;;;;2.80;1.10;;;25.20;72.20;;;;;;5155381;27;20494;-47
2023/06/16 11:38:21;;;;;;;;;;;25.30;71.70;;;;;;5155427;27;20053;-53
2023/06/16 11:40:48;;;;;;;2.38;0.88;;;25.40;68.70;;;;;;5155479;27;19919;-47
2023/06/16 11:43:16;;;;;;;2.75;0.90;;;25.50;71.80;;;;;;5155413;27;20408;-48
2023/06/16 11:45:41;;;;;;;2.58;0.90;;;25.50;71.70;;;;;;5155664;27;20054;-47
2023/06/16 11:48:09;;;;;;;;;;;25.60;71.00;;;;;;5155801;27;20035;-50
2023/06/16 11:50:35;;;;;;;2.47;1.00;;;25.70;66.60;;;;;;5155161;27;19926;-48
2023/06/16 11:53:01;;;;;;;4.07;1.23;;;25.60;69.00;;;;;;5155256;27;20085;-47
2023/06/16 11:55:27;;;;;;;1.88;0.80;;;25.60;67.50;;;;;;5155021;27;20481;-48
2023/06/16 11:57:53;;;;;;;2.78;1.13;;;25.70;67.50;;;;;;5155189;27;20039;-48
2023/06/16 12:00:20;;;;;;;;;;;25.70;67.70;;;;;;5155774;27;20069;-48
2023/06/16 12:02:48;;;;;;;2.25;0.82;;;25.80;61.40;;;;;;5155167;27;19962;-48
2023/06/16 12:05:22;;;;;;;2.55;1.08;;;25.80;65.60;;;;;;5155065;27;20038;-48
2023/06/16 12:07:49;;;;;;;2.30;1.08;;;25.90;63.70;;;;;;5154844;27;20050;-53
2023/06/16 12:10:16;;;;;;;2.35;0.98;;;25.90;63.60;;;;;;5155028;27;20065;-50
2023/06/16 12:12:43;;;;;;;2.95;0.93;;;25.90;63.90;;;;;;5155398;27;20053;-48
2023/06/16 12:15:12;;;;;;;2.47;1.15;;;25.90;63.80;;;;;;5137016;27;20058;-50
2023/06/16 12:17:39;;;;;;;3.85;1.00;;;25.90;63.70;;;;;;5155080;27;20096;-49
2023/06/16 12:20:05;;;;;;;3.15;1.27;;;25.90;64.00;;;;;;5155060;27;20130;-49
2023/06/16 12:22:35;;;;;;;1.95;0.85;;;26.00;63.60;;;;;;5119574;27;20045;-49
2023/06/16 12:25:01;;;;;;;2.63;1.10;;;26.00;63.30;;;;;;5136788;27;20490;-51
2023/06/16 12:27:26;;;;;;;3.03;1.25;;;26.10;63.70;;;;;;5155286;27;20127;-48
2023/06/16 12:29:56;;;;;;;3.15;1.30;;;26.10;63.10;;;;;;5136678;27;20539;-52
2023/06/16 12:32:32;;;;;;;4.93;1.42;;;26.20;63.20;;;;;;5136758;27;20102;-48
2023/06/16 12:34:58;;;;;;;3.17;1.33;;;26.30;62.60;;;;;;5154944;27;20047;-47
2023/06/16 12:37:28;;;;;;;2.85;1.10;;;26.30;63.00;;;;;;5154854;27;20045;-48
2023/06/16 12:40:00;;;;;;;3.60;1.40;;;26.20;62.30;;;;;;5136065;27;20473;-48
2023/06/16 12:42:31;;;;;;;3.72;1.50;;;26.10;62.80;;;;;;5155846;27;20043;-48
2023/06/16 12:44:59;;;;;;;3.47;1.20;;;26.10;62.90;;;;;;5140420;27;20042;-53
2023/06/16 12:47:26;;;;;;;2.83;1.15;;;26.00;62.00;;;;;;5158554;27;20042;-48
2023/06/16 12:49:57;;;;;;;3.42;1.27;;;25.90;63.30;;;;;;5158642;27;20524;-48
2023/06/16 12:52:25;;;;;;;2.85;1.20;;;25.90;63.10;;;;;;5158884;27;20051;-48